sensor_id;sensor_type;location;lat;lon;timestamp;P1;durP1;ratioP1;P2;durP2;ratioP2
24521;SDS011;12680;57.804;12.190;2023-11-18T00:00:08;5.13;;;2.42;;
24521;SDS011;12680;57.804;12.190;2023-11-18T00:02:42;3.88;;;2.30;;
24521;SDS011;12680;57.804;12.190;2023-11-18T00:05:10;3.05;;;2.35;;
24521;SDS011;12680;57.804;12.190;2023-11-18T00:07:38;3.30;;;2.13;;
24521;SDS011;12680;57.804;12.190;2023-11-18T00:10:05;4.07;;;2.40;;
24521;SDS011;12680;57.804;12.190;2023-11-18T00:12:32;3.88;;;2.25;;
24521;SDS011;12680;57.804;12.190;2023-11-18T00:15:03;4.32;;;3.05;;
24521;SDS011;12680;57.804;12.190;2023-11-18T00:17:31;2.72;;;2.25;;
24521;SDS011;12680;57.804;12.190;2023-11-18T00:20:01;3.43;;;2.27;;
24521;SDS011;12680;57.804;12.190;2023-11-18T00:22:35;4.43;;;2.45;;
24521;SDS011;12680;57.804;12.190;2023-11-18T00:25:02;3.30;;;2.20;;
24521;SDS011;12680;57.804;12.190;2023-11-18T00:27:34;4.70;;;2.97;;
24521;SDS011;12680;57.804;12.190;2023-11-18T00:30:07;3.35;;;2.38;;
24521;SDS011;12680;57.804;12.190;2023-11-18T00:32:37;2.72;;;1.95;;
24521;SDS011;12680;57.804;12.190;2023-11-18T00:35:05;4.07;;;2.35;;
24521;SDS011;12680;57.804;12.190;2023-11-18T00:37:33;3.33;;;2.30;;
24521;SDS011;12680;57.804;12.190;2023-11-18T00:39:59;2.95;;;2.10;;
24521;SDS011;12680;57.804;12.190;2023-11-18T00:42:29;3.67;;;2.38;;
24521;SDS011;12680;57.804;12.190;2023-11-18T00:44:58;3.05;;;2.33;;
24521;SDS011;12680;57.804;12.190;2023-11-18T00:47:24;5.32;;;2.20;;
24521;SDS011;12680;57.804;12.190;2023-11-18T00:49:51;3.90;;;2.42;;
24521;SDS011;12680;57.804;12.190;2023-11-18T00:52:19;3.45;;;2.35;;
24521;SDS011;12680;57.804;12.190;2023-11-18T00:54:46;2.30;;;2.10;;
24521;SDS011;12680;57.804;12.190;2023-11-18T00:57:13;4.10;;;2.47;;
24521;SDS011;12680;57.804;12.190;2023-11-18T00:59:43;2.95;;;2.28;;
24521;SDS011;12680;57.804;12.190;2023-11-18T01:02:10;5.78;;;2.60;;
24521;SDS011;12680;57.804;12.190;2023-11-18T01:04:37;4.60;;;2.60;;
24521;SDS011;12680;57.804;12.190;2023-11-18T01:07:05;4.05;;;2.63;;
24521;SDS011;12680;57.804;12.190;2023-11-18T01:09:35;4.47;;;2.90;;
24521;SDS011;12680;57.804;12.190;2023-11-18T01:12:05;3.30;;;2.40;;
24521;SDS011;12680;57.804;12.190;2023-11-18T01:14:36;4.55;;;2.78;;
24521;SDS011;12680;57.804;12.190;2023-11-18T01:17:05;3.20;;;2.50;;
24521;SDS011;12680;57.804;12.190;2023-11-18T01:19:33;4.28;;;2.85;;
24521;SDS011;12680;57.804;12.190;2023-11-18T01:22:00;4.13;;;2.35;;
24521;SDS011;12680;57.804;12.190;2023-11-18T01:24:27;3.25;;;2.72;;
24521;SDS011;12680;57.804;12.190;2023-11-18T01:26:56;3.25;;;2.70;;
24521;SDS011;12680;57.804;12.190;2023-11-18T01:29:23;6.22;;;2.75;;
24521;SDS011;12680;57.804;12.190;2023-11-18T01:31:50;3.15;;;2.53;;
24521;SDS011;12680;57.804;12.190;2023-11-18T01:34:21;3.92;;;2.80;;
24521;SDS011;12680;57.804;12.190;2023-11-18T01:36:49;4.80;;;2.83;;
24521;SDS011;12680;57.804;12.190;2023-11-18T01:39:16;4.20;;;2.97;;
24521;SDS011;12680;57.804;12.190;2023-11-18T01:41:47;3.47;;;2.33;;
24521;SDS011;12680;57.804;12.190;2023-11-18T01:44:15;3.85;;;2.38;;
24521;SDS011;12680;57.804;12.190;2023-11-18T01:46:44;2.90;;;2.30;;
24521;SDS011;12680;57.804;12.190;2023-11-18T01:49:12;3.13;;;2.47;;
24521;SDS011;12680;57.804;12.190;2023-11-18T01:51:44;2.50;;;2.30;;
24521;SDS011;12680;57.804;12.190;2023-11-18T01:54:13;4.07;;;2.42;;
24521;SDS011;12680;57.804;12.190;2023-11-18T01:56:43;3.78;;;2.65;;
24521;SDS011;12680;57.804;12.190;2023-11-18T01:59:12;3.15;;;2.22;;
24521;SDS011;12680;57.804;12.190;2023-11-18T02:01:52;4.05;;;2.78;;
24521;SDS011;12680;57.804;12.190;2023-11-18T02:04:20;4.25;;;2.60;;
24521;SDS011;12680;57.804;12.190;2023-11-18T02:06:48;7.40;;;2.92;;
24521;SDS011;12680;57.804;12.190;2023-11-18T02:09:16;3.10;;;2.30;;
24521;SDS011;12680;57.804;12.190;2023-11-18T02:11:46;3.35;;;2.50;;
24521;SDS011;12680;57.804;12.190;2023-11-18T02:14:26;4.05;;;2.47;;
24521;SDS011;12680;57.804;12.190;2023-11-18T02:16:57;3.72;;;2.42;;
24521;SDS011;12680;57.804;12.190;2023-11-18T02:19:27;4.07;;;2.63;;
24521;SDS011;12680;57.804;12.190;2023-11-18T02:21:56;3.88;;;2.72;;
24521;SDS011;12680;57.804;12.190;2023-11-18T02:24:24;3.80;;;2.78;;
24521;SDS011;12680;57.804;12.190;2023-11-18T02:26:57;3.17;;;2.35;;
24521;SDS011;12680;57.804;12.190;2023-11-18T02:29:25;5.18;;;2.90;;
24521;SDS011;12680;57.804;12.190;2023-11-18T02:32:00;3.95;;;2.83;;
24521;SDS011;12680;57.804;12.190;2023-11-18T02:34:35;3.63;;;2.83;;
24521;SDS011;12680;57.804;12.190;2023-11-18T02:37:06;4.47;;;2.88;;
24521;SDS011;12680;57.804;12.190;2023-11-18T02:39:45;3.63;;;2.65;;
24521;SDS011;12680;57.804;12.190;2023-11-18T02:42:15;4.27;;;2.67;;
24521;SDS011;12680;57.804;12.190;2023-11-18T02:44:46;3.97;;;2.55;;
24521;SDS011;12680;57.804;12.190;2023-11-18T02:47:15;3.95;;;2.90;;
24521;SDS011;12680;57.804;12.190;2023-11-18T02:49:42;5.10;;;2.55;;
24521;SDS011;12680;57.804;12.190;2023-11-18T02:52:09;5.38;;;3.20;;
24521;SDS011;12680;57.804;12.190;2023-11-18T02:54:36;4.53;;;2.65;;
24521;SDS011;12680;57.804;12.190;2023-11-18T02:57:03;5.85;;;2.88;;
24521;SDS011;12680;57.804;12.190;2023-11-18T02:59:30;2.95;;;2.13;;
24521;SDS011;12680;57.804;12.190;2023-11-18T03:01:57;4.65;;;2.90;;
24521;SDS011;12680;57.804;12.190;2023-11-18T03:04:24;4.25;;;3.00;;
24521;SDS011;12680;57.804;12.190;2023-11-18T03:06:55;4.65;;;2.97;;
24521;SDS011;12680;57.804;12.190;2023-11-18T03:09:26;3.63;;;2.63;;
24521;SDS011;12680;57.804;12.190;2023-11-18T03:11:54;3.75;;;2.78;;
24521;SDS011;12680;57.804;12.190;2023-11-18T03:14:21;5.95;;;3.13;;
24521;SDS011;12680;57.804;12.190;2023-11-18T03:16:49;4.82;;;3.15;;
24521;SDS011;12680;57.804;12.190;2023-11-18T03:19:19;4.65;;;3.00;;
24521;SDS011;12680;57.804;12.190;2023-11-18T03:21:55;3.47;;;2.65;;
24521;SDS011;12680;57.804;12.190;2023-11-18T03:24:22;4.45;;;2.72;;
24521;SDS011;12680;57.804;12.190;2023-11-18T03:26:49;3.22;;;2.28;;
24521;SDS011;12680;57.804;12.190;2023-11-18T03:29:17;3.10;;;2.53;;
24521;SDS011;12680;57.804;12.190;2023-11-18T03:31:43;3.60;;;2.22;;
24521;SDS011;12680;57.804;12.190;2023-11-18T03:34:15;4.55;;;2.30;;
24521;SDS011;12680;57.804;12.190;2023-11-18T03:36:44;2.97;;;2.28;;
24521;SDS011;12680;57.804;12.190;2023-11-18T03:39:13;3.33;;;2.20;;
24521;SDS011;12680;57.804;12.190;2023-11-18T03:41:41;3.38;;;2.35;;
24521;SDS011;12680;57.804;12.190;2023-11-18T03:44:13;2.40;;;2.10;;
24521;SDS011;12680;57.804;12.190;2023-11-18T03:46:40;4.03;;;2.40;;
24521;SDS011;12680;57.804;12.190;2023-11-18T03:49:08;2.72;;;2.10;;
24521;SDS011;12680;57.804;12.190;2023-11-18T03:51:36;3.28;;;2.33;;
24521;SDS011;12680;57.804;12.190;2023-11-18T03:54:02;3.33;;;2.40;;
24521;SDS011;12680;57.804;12.190;2023-11-18T03:56:30;2.72;;;2.10;;
24521;SDS011;12680;57.804;12.190;2023-11-18T03:59:00;2.70;;;2.13;;
24521;SDS011;12680;57.804;12.190;2023-11-18T04:01:27;3.05;;;2.30;;
24521;SDS011;12680;57.804;12.190;2023-11-18T04:03:54;3.25;;;2.10;;
24521;SDS011;12680;57.804;12.190;2023-11-18T04:06:21;4.18;;;1.98;;
24521;SDS011;12680;57.804;12.190;2023-11-18T04:08:50;2.67;;;2.15;;
24521;SDS011;12680;57.804;12.190;2023-11-18T04:11:17;2.95;;;2.08;;
24521;SDS011;12680;57.804;12.190;2023-11-18T04:13:51;3.47;;;2.30;;
24521;SDS011;12680;57.804;12.190;2023-11-18T04:16:19;3.17;;;2.03;;
24521;SDS011;12680;57.804;12.190;2023-11-18T04:18:46;2.33;;;2.13;;
24521;SDS011;12680;57.804;12.190;2023-11-18T04:21:13;3.50;;;2.35;;
24521;SDS011;12680;57.804;12.190;2023-11-18T04:23:41;2.55;;;1.83;;
24521;SDS011;12680;57.804;12.190;2023-11-18T04:26:08;2.72;;;2.10;;
24521;SDS011;12680;57.804;12.190;2023-11-18T04:28:38;2.78;;;2.00;;
24521;SDS011;12680;57.804;12.190;2023-11-18T04:31:05;3.60;;;2.35;;
24521;SDS011;12680;57.804;12.190;2023-11-18T04:33:32;2.55;;;2.00;;
24521;SDS011;12680;57.804;12.190;2023-11-18T04:36:07;2.97;;;2.40;;
24521;SDS011;12680;57.804;12.190;2023-11-18T04:38:39;2.60;;;2.00;;
24521;SDS011;12680;57.804;12.190;2023-11-18T04:41:09;4.82;;;2.28;;
24521;SDS011;12680;57.804;12.190;2023-11-18T04:43:36;4.13;;;2.95;;
24521;SDS011;12680;57.804;12.190;2023-11-18T04:46:11;2.60;;;1.85;;
24521;SDS011;12680;57.804;12.190;2023-11-18T04:48:40;2.88;;;2.20;;
24521;SDS011;12680;57.804;12.190;2023-11-18T04:51:08;3.70;;;2.17;;
24521;SDS011;12680;57.804;12.190;2023-11-18T04:53:39;5.15;;;2.33;;
24521;SDS011;12680;57.804;12.190;2023-11-18T04:56:06;3.25;;;2.58;;
24521;SDS011;12680;57.804;12.190;2023-11-18T04:58:38;2.85;;;2.17;;
24521;SDS011;12680;57.804;12.190;2023-11-18T05:01:05;3.03;;;2.33;;
24521;SDS011;12680;57.804;12.190;2023-11-18T05:03:35;3.03;;;2.72;;
24521;SDS011;12680;57.804;12.190;2023-11-18T05:06:03;4.57;;;2.95;;
24521;SDS011;12680;57.804;12.190;2023-11-18T05:08:31;4.13;;;2.90;;
24521;SDS011;12680;57.804;12.190;2023-11-18T05:11:00;3.95;;;2.60;;
24521;SDS011;12680;57.804;12.190;2023-11-18T05:13:27;2.40;;;2.17;;
24521;SDS011;12680;57.804;12.190;2023-11-18T05:15:54;3.20;;;2.10;;
24521;SDS011;12680;57.804;12.190;2023-11-18T05:18:20;3.50;;;2.17;;
24521;SDS011;12680;57.804;12.190;2023-11-18T05:20:48;3.67;;;2.38;;
24521;SDS011;12680;57.804;12.190;2023-11-18T05:23:18;3.80;;;2.53;;
24521;SDS011;12680;57.804;12.190;2023-11-18T05:25:44;3.38;;;2.50;;
24521;SDS011;12680;57.804;12.190;2023-11-18T05:28:17;3.05;;;2.05;;
24521;SDS011;12680;57.804;12.190;2023-11-18T05:30:48;4.00;;;2.55;;
24521;SDS011;12680;57.804;12.190;2023-11-18T05:33:17;6.28;;;2.88;;
24521;SDS011;12680;57.804;12.190;2023-11-18T05:35:44;5.97;;;2.53;;
24521;SDS011;12680;57.804;12.190;2023-11-18T05:38:19;2.78;;;2.33;;
24521;SDS011;12680;57.804;12.190;2023-11-18T05:40:48;4.35;;;2.60;;
24521;SDS011;12680;57.804;12.190;2023-11-18T05:43:28;5.60;;;2.80;;
24521;SDS011;12680;57.804;12.190;2023-11-18T05:46:07;5.13;;;2.72;;
24521;SDS011;12680;57.804;12.190;2023-11-18T05:49:03;3.83;;;2.42;;
24521;SDS011;12680;57.804;12.190;2023-11-18T05:51:34;4.70;;;2.97;;
24521;SDS011;12680;57.804;12.190;2023-11-18T05:54:01;3.45;;;2.83;;
24521;SDS011;12680;57.804;12.190;2023-11-18T05:56:28;4.70;;;2.78;;
24521;SDS011;12680;57.804;12.190;2023-11-18T05:58:55;4.60;;;3.10;;
24521;SDS011;12680;57.804;12.190;2023-11-18T06:01:22;4.18;;;3.03;;
24521;SDS011;12680;57.804;12.190;2023-11-18T06:03:50;4.97;;;2.90;;
24521;SDS011;12680;57.804;12.190;2023-11-18T06:06:17;3.40;;;2.80;;
24521;SDS011;12680;57.804;12.190;2023-11-18T06:08:49;3.83;;;2.80;;
24521;SDS011;12680;57.804;12.190;2023-11-18T06:11:17;3.13;;;2.25;;
24521;SDS011;12680;57.804;12.190;2023-11-18T06:13:46;2.92;;;2.55;;
24521;SDS011;12680;57.804;12.190;2023-11-18T06:16:15;4.07;;;3.03;;
24521;SDS011;12680;57.804;12.190;2023-11-18T06:18:48;4.65;;;3.00;;
24521;SDS011;12680;57.804;12.190;2023-11-18T06:21:17;3.80;;;2.83;;
24521;SDS011;12680;57.804;12.190;2023-11-18T06:23:46;4.75;;;2.90;;
24521;SDS011;12680;57.804;12.190;2023-11-18T06:26:14;4.05;;;2.45;;
24521;SDS011;12680;57.804;12.190;2023-11-18T06:28:45;4.70;;;3.20;;
24521;SDS011;12680;57.804;12.190;2023-11-18T06:31:12;4.32;;;2.83;;
24521;SDS011;12680;57.804;12.190;2023-11-18T06:33:41;4.90;;;3.08;;
24521;SDS011;12680;57.804;12.190;2023-11-18T06:38:40;4.50;;;3.38;;
24521;SDS011;12680;57.804;12.190;2023-11-18T06:41:12;5.97;;;3.90;;
24521;SDS011;12680;57.804;12.190;2023-11-18T06:43:44;4.85;;;3.30;;
24521;SDS011;12680;57.804;12.190;2023-11-18T06:46:19;5.03;;;2.75;;
24521;SDS011;12680;57.804;12.190;2023-11-18T06:48:49;3.07;;;2.73;;
24521;SDS011;12680;57.804;12.190;2023-11-18T06:51:20;4.63;;;2.90;;
24521;SDS011;12680;57.804;12.190;2023-11-18T06:53:50;4.60;;;3.22;;
24521;SDS011;12680;57.804;12.190;2023-11-18T06:56:18;7.07;;;3.58;;
24521;SDS011;12680;57.804;12.190;2023-11-18T06:58:45;8.48;;;4.85;;
24521;SDS011;12680;57.804;12.190;2023-11-18T07:01:12;10.63;;;6.32;;
24521;SDS011;12680;57.804;12.190;2023-11-18T07:03:44;17.75;;;8.25;;
24521;SDS011;12680;57.804;12.190;2023-11-18T07:06:18;11.02;;;6.50;;
24521;SDS011;12680;57.804;12.190;2023-11-18T07:08:49;7.93;;;4.30;;
24521;SDS011;12680;57.804;12.190;2023-11-18T07:11:16;8.15;;;4.35;;
24521;SDS011;12680;57.804;12.190;2023-11-18T07:13:44;7.07;;;4.53;;
24521;SDS011;12680;57.804;12.190;2023-11-18T07:16:11;5.75;;;4.07;;
24521;SDS011;12680;57.804;12.190;2023-11-18T07:18:38;5.32;;;3.60;;
24521;SDS011;12680;57.804;12.190;2023-11-18T07:21:05;5.63;;;3.50;;
24521;SDS011;12680;57.804;12.190;2023-11-18T07:23:33;6.93;;;3.38;;
24521;SDS011;12680;57.804;12.190;2023-11-18T07:26:00;4.88;;;3.30;;
24521;SDS011;12680;57.804;12.190;2023-11-18T07:28:30;4.93;;;3.35;;
24521;SDS011;12680;57.804;12.190;2023-11-18T07:30:57;5.78;;;3.80;;
24521;SDS011;12680;57.804;12.190;2023-11-18T07:33:31;10.57;;;6.22;;
24521;SDS011;12680;57.804;12.190;2023-11-18T07:35:58;15.95;;;9.48;;
24521;SDS011;12680;57.804;12.190;2023-11-18T07:38:25;10.77;;;6.22;;
24521;SDS011;12680;57.804;12.190;2023-11-18T07:40:57;6.30;;;4.75;;
24521;SDS011;12680;57.804;12.190;2023-11-18T07:43:24;8.60;;;4.55;;
24521;SDS011;12680;57.804;12.190;2023-11-18T07:45:50;5.20;;;3.88;;
24521;SDS011;12680;57.804;12.190;2023-11-18T07:48:19;3.97;;;2.90;;
24521;SDS011;12680;57.804;12.190;2023-11-18T07:50:47;4.60;;;2.80;;
24521;SDS011;12680;57.804;12.190;2023-11-18T07:53:14;4.15;;;3.00;;
24521;SDS011;12680;57.804;12.190;2023-11-18T07:55:41;5.70;;;2.95;;
24521;SDS011;12680;57.804;12.190;2023-11-18T07:58:08;4.55;;;2.50;;
24521;SDS011;12680;57.804;12.190;2023-11-18T08:00:39;6.50;;;3.97;;
24521;SDS011;12680;57.804;12.190;2023-11-18T08:03:06;8.18;;;3.10;;
24521;SDS011;12680;57.804;12.190;2023-11-18T08:05:42;4.43;;;3.33;;
24521;SDS011;12680;57.804;12.190;2023-11-18T08:08:10;4.43;;;2.75;;
24521;SDS011;12680;57.804;12.190;2023-11-18T08:10:43;5.80;;;3.70;;
24521;SDS011;12680;57.804;12.190;2023-11-18T08:13:11;4.32;;;3.20;;
24521;SDS011;12680;57.804;12.190;2023-11-18T08:15:40;7.93;;;3.58;;
24521;SDS011;12680;57.804;12.190;2023-11-18T08:18:08;5.18;;;3.30;;
24521;SDS011;12680;57.804;12.190;2023-11-18T08:20:36;4.47;;;3.13;;
24521;SDS011;12680;57.804;12.190;2023-11-18T08:23:04;5.85;;;3.20;;
24521;SDS011;12680;57.804;12.190;2023-11-18T08:25:31;4.05;;;2.75;;
24521;SDS011;12680;57.804;12.190;2023-11-18T08:30:33;3.42;;;2.30;;
24521;SDS011;12680;57.804;12.190;2023-11-18T08:33:03;4.00;;;2.50;;
24521;SDS011;12680;57.804;12.190;2023-11-18T08:35:32;4.63;;;2.33;;
24521;SDS011;12680;57.804;12.190;2023-11-18T08:37:59;4.55;;;2.60;;
24521;SDS011;12680;57.804;12.190;2023-11-18T08:40:27;8.75;;;3.67;;
24521;SDS011;12680;57.804;12.190;2023-11-18T08:42:54;8.57;;;4.10;;
24521;SDS011;12680;57.804;12.190;2023-11-18T08:45:25;5.38;;;2.90;;
24521;SDS011;12680;57.804;12.190;2023-11-18T08:47:56;3.05;;;2.40;;
24521;SDS011;12680;57.804;12.190;2023-11-18T08:50:24;3.75;;;2.50;;
24521;SDS011;12680;57.804;12.190;2023-11-18T08:52:52;3.88;;;2.63;;
24521;SDS011;12680;57.804;12.190;2023-11-18T08:55:26;4.18;;;2.70;;
24521;SDS011;12680;57.804;12.190;2023-11-18T08:58:16;3.90;;;2.67;;
24521;SDS011;12680;57.804;12.190;2023-11-18T09:00:56;5.00;;;2.65;;
24521;SDS011;12680;57.804;12.190;2023-11-18T09:03:41;4.32;;;2.83;;
24521;SDS011;12680;57.804;12.190;2023-11-18T09:06:19;4.68;;;2.95;;
24521;SDS011;12680;57.804;12.190;2023-11-18T09:08:55;6.32;;;3.38;;
24521;SDS011;12680;57.804;12.190;2023-11-18T09:11:25;4.38;;;2.95;;
24521;SDS011;12680;57.804;12.190;2023-11-18T09:13:55;3.35;;;2.20;;
24521;SDS011;12680;57.804;12.190;2023-11-18T09:16:27;4.35;;;2.88;;
24521;SDS011;12680;57.804;12.190;2023-11-18T09:18:56;6.18;;;4.25;;
24521;SDS011;12680;57.804;12.190;2023-11-18T09:21:26;8.60;;;3.40;;
24521;SDS011;12680;57.804;12.190;2023-11-18T09:23:56;13.70;;;3.17;;
24521;SDS011;12680;57.804;12.190;2023-11-18T09:26:23;4.97;;;3.60;;
24521;SDS011;12680;57.804;12.190;2023-11-18T09:28:52;17.48;;;5.28;;
24521;SDS011;12680;57.804;12.190;2023-11-18T09:31:20;5.00;;;3.15;;
24521;SDS011;12680;57.804;12.190;2023-11-18T09:33:48;5.70;;;3.30;;
24521;SDS011;12680;57.804;12.190;2023-11-18T09:36:24;5.20;;;3.13;;
24521;SDS011;12680;57.804;12.190;2023-11-18T09:38:52;6.20;;;3.92;;
24521;SDS011;12680;57.804;12.190;2023-11-18T09:41:22;6.68;;;3.58;;
24521;SDS011;12680;57.804;12.190;2023-11-18T09:43:51;4.65;;;2.97;;
24521;SDS011;12680;57.804;12.190;2023-11-18T09:46:24;5.57;;;2.90;;
24521;SDS011;12680;57.804;12.190;2023-11-18T09:51:53;4.57;;;3.05;;
24521;SDS011;12680;57.804;12.190;2023-11-18T09:54:29;5.78;;;3.22;;
24521;SDS011;12680;57.804;12.190;2023-11-18T09:57:07;5.32;;;2.72;;
24521;SDS011;12680;57.804;12.190;2023-11-18T10:00:01;3.38;;;2.65;;
24521;SDS011;12680;57.804;12.190;2023-11-18T10:02:53;3.55;;;2.45;;
24521;SDS011;12680;57.804;12.190;2023-11-18T10:05:24;2.08;;;1.83;;
24521;SDS011;12680;57.804;12.190;2023-11-18T10:07:57;4.37;;;2.57;;
24521;SDS011;12680;57.804;12.190;2023-11-18T10:10:25;4.65;;;2.70;;
24521;SDS011;12680;57.804;12.190;2023-11-18T10:13:04;5.47;;;2.80;;
24521;SDS011;12680;57.804;12.190;2023-11-18T10:15:35;5.32;;;2.90;;
24521;SDS011;12680;57.804;12.190;2023-11-18T10:18:02;3.72;;;2.80;;
24521;SDS011;12680;57.804;12.190;2023-11-18T10:23:11;4.22;;;2.75;;
24521;SDS011;12680;57.804;12.190;2023-11-18T10:28:24;3.75;;;2.50;;
24521;SDS011;12680;57.804;12.190;2023-11-18T10:30:59;3.75;;;2.40;;
24521;SDS011;12680;57.804;12.190;2023-11-18T10:33:31;4.05;;;2.55;;
24521;SDS011;12680;57.804;12.190;2023-11-18T10:35:59;5.18;;;2.50;;
24521;SDS011;12680;57.804;12.190;2023-11-18T10:40:58;5.05;;;3.28;;
24521;SDS011;12680;57.804;12.190;2023-11-18T10:43:28;5.20;;;2.70;;
24521;SDS011;12680;57.804;12.190;2023-11-18T10:46:05;4.20;;;2.65;;
24521;SDS011;12680;57.804;12.190;2023-11-18T10:48:48;5.00;;;2.38;;
24521;SDS011;12680;57.804;12.190;2023-11-18T10:51:17;7.05;;;2.63;;
24521;SDS011;12680;57.804;12.190;2023-11-18T10:53:53;3.70;;;2.85;;
24521;SDS011;12680;57.804;12.190;2023-11-18T10:56:23;3.70;;;3.00;;
24521;SDS011;12680;57.804;12.190;2023-11-18T10:58:57;4.03;;;2.50;;
24521;SDS011;12680;57.804;12.190;2023-11-18T11:01:34;3.80;;;2.75;;
24521;SDS011;12680;57.804;12.190;2023-11-18T11:04:09;5.13;;;2.60;;
24521;SDS011;12680;57.804;12.190;2023-11-18T11:06:41;6.90;;;3.45;;
24521;SDS011;12680;57.804;12.190;2023-11-18T11:09:12;4.78;;;2.97;;
24521;SDS011;12680;57.804;12.190;2023-11-18T11:11:56;5.97;;;2.90;;
24521;SDS011;12680;57.804;12.190;2023-11-18T11:14:32;6.80;;;3.45;;
24521;SDS011;12680;57.804;12.190;2023-11-18T11:17:13;4.55;;;3.22;;
24521;SDS011;12680;57.804;12.190;2023-11-18T11:19:50;4.78;;;3.15;;
24521;SDS011;12680;57.804;12.190;2023-11-18T11:22:32;4.80;;;2.72;;
24521;SDS011;12680;57.804;12.190;2023-11-18T11:25:16;7.85;;;3.20;;
24521;SDS011;12680;57.804;12.190;2023-11-18T11:27:59;6.75;;;2.72;;
24521;SDS011;12680;57.804;12.190;2023-11-18T11:30:40;4.60;;;2.33;;
24521;SDS011;12680;57.804;12.190;2023-11-18T11:36:03;4.70;;;1.98;;
24521;SDS011;12680;57.804;12.190;2023-11-18T11:38:38;3.80;;;2.33;;
24521;SDS011;12680;57.804;12.190;2023-11-18T11:41:04;2.55;;;2.03;;
24521;SDS011;12680;57.804;12.190;2023-11-18T11:43:34;4.47;;;2.55;;
24521;SDS011;12680;57.804;12.190;2023-11-18T11:46:01;3.55;;;2.40;;
24521;SDS011;12680;57.804;12.190;2023-11-18T11:48:38;3.55;;;2.25;;
24521;SDS011;12680;57.804;12.190;2023-11-18T11:54:02;3.15;;;2.30;;
24521;SDS011;12680;57.804;12.190;2023-11-18T11:56:45;3.47;;;2.20;;
24521;SDS011;12680;57.804;12.190;2023-11-18T12:02:23;3.78;;;2.35;;
24521;SDS011;12680;57.804;12.190;2023-11-18T12:04:55;4.57;;;2.35;;
24521;SDS011;12680;57.804;12.190;2023-11-18T12:07:25;4.30;;;2.30;;
24521;SDS011;12680;57.804;12.190;2023-11-18T12:09:58;3.80;;;2.53;;
24521;SDS011;12680;57.804;12.190;2023-11-18T12:12:27;5.30;;;2.60;;
24521;SDS011;12680;57.804;12.190;2023-11-18T12:14:55;4.45;;;2.28;;
24521;SDS011;12680;57.804;12.190;2023-11-18T12:20:38;4.55;;;2.90;;
24521;SDS011;12680;57.804;12.190;2023-11-18T12:23:14;7.65;;;2.38;;
24521;SDS011;12680;57.804;12.190;2023-11-18T12:25:42;5.40;;;2.40;;
24521;SDS011;12680;57.804;12.190;2023-11-18T12:28:13;4.07;;;2.60;;
24521;SDS011;12680;57.804;12.190;2023-11-18T12:30:43;10.55;;;3.72;;
24521;SDS011;12680;57.804;12.190;2023-11-18T12:33:51;5.97;;;3.72;;
24521;SDS011;12680;57.804;12.190;2023-11-18T12:42:05;4.57;;;1.90;;
24521;SDS011;12680;57.804;12.190;2023-11-18T12:45:06;6.75;;;2.50;;
24521;SDS011;12680;57.804;12.190;2023-11-18T12:47:58;3.20;;;2.08;;
24521;SDS011;12680;57.804;12.190;2023-11-18T12:50:38;2.70;;;1.88;;
24521;SDS011;12680;57.804;12.190;2023-11-18T12:53:12;6.03;;;2.13;;
24521;SDS011;12680;57.804;12.190;2023-11-18T12:55:41;5.03;;;2.17;;
24521;SDS011;12680;57.804;12.190;2023-11-18T12:58:09;3.40;;;2.08;;
24521;SDS011;12680;57.804;12.190;2023-11-18T13:00:39;3.33;;;2.28;;
24521;SDS011;12680;57.804;12.190;2023-11-18T13:03:09;3.35;;;2.38;;
24521;SDS011;12680;57.804;12.190;2023-11-18T13:05:37;5.30;;;3.05;;
24521;SDS011;12680;57.804;12.190;2023-11-18T13:08:04;4.00;;;2.50;;
24521;SDS011;12680;57.804;12.190;2023-11-18T13:10:31;3.03;;;2.38;;
24521;SDS011;12680;57.804;12.190;2023-11-18T13:12:58;4.20;;;2.67;;
24521;SDS011;12680;57.804;12.190;2023-11-18T13:15:26;4.55;;;2.53;;
24521;SDS011;12680;57.804;12.190;2023-11-18T13:17:57;3.78;;;1.98;;
24521;SDS011;12680;57.804;12.190;2023-11-18T13:20:29;6.63;;;2.65;;
24521;SDS011;12680;57.804;12.190;2023-11-18T13:23:03;3.67;;;2.35;;
24521;SDS011;12680;57.804;12.190;2023-11-18T13:25:35;2.97;;;2.28;;
24521;SDS011;12680;57.804;12.190;2023-11-18T13:28:07;4.20;;;2.20;;
24521;SDS011;12680;57.804;12.190;2023-11-18T13:30:36;2.40;;;2.03;;
24521;SDS011;12680;57.804;12.190;2023-11-18T13:33:06;8.63;;;1.98;;
24521;SDS011;12680;57.804;12.190;2023-11-18T13:35:34;5.30;;;2.38;;
24521;SDS011;12680;57.804;12.190;2023-11-18T13:38:02;4.10;;;2.20;;
24521;SDS011;12680;57.804;12.190;2023-11-18T13:40:47;3.88;;;2.47;;
24521;SDS011;12680;57.804;12.190;2023-11-18T13:43:14;3.35;;;2.20;;
24521;SDS011;12680;57.804;12.190;2023-11-18T13:45:41;5.18;;;2.50;;
24521;SDS011;12680;57.804;12.190;2023-11-18T13:48:12;5.23;;;2.50;;
24521;SDS011;12680;57.804;12.190;2023-11-18T13:50:40;5.88;;;2.13;;
24521;SDS011;12680;57.804;12.190;2023-11-18T13:53:09;6.10;;;2.78;;
24521;SDS011;12680;57.804;12.190;2023-11-18T13:55:37;5.05;;;2.70;;
24521;SDS011;12680;57.804;12.190;2023-11-18T13:58:05;7.75;;;5.80;;
24521;SDS011;12680;57.804;12.190;2023-11-18T14:00:32;5.72;;;3.50;;
24521;SDS011;12680;57.804;12.190;2023-11-18T14:02:59;7.00;;;2.60;;
24521;SDS011;12680;57.804;12.190;2023-11-18T14:05:27;5.35;;;2.42;;
24521;SDS011;12680;57.804;12.190;2023-11-18T14:07:54;3.20;;;1.98;;
24521;SDS011;12680;57.804;12.190;2023-11-18T14:10:26;2.33;;;1.60;;
24521;SDS011;12680;57.804;12.190;2023-11-18T14:13:00;2.90;;;1.98;;
24521;SDS011;12680;57.804;12.190;2023-11-18T14:15:29;2.90;;;2.00;;
24521;SDS011;12680;57.804;12.190;2023-11-18T14:17:56;4.38;;;1.50;;
24521;SDS011;12680;57.804;12.190;2023-11-18T14:20:24;8.55;;;1.98;;
24521;SDS011;12680;57.804;12.190;2023-11-18T14:22:51;3.83;;;2.08;;
24521;SDS011;12680;57.804;12.190;2023-11-18T14:25:21;2.67;;;1.50;;
24521;SDS011;12680;57.804;12.190;2023-11-18T14:27:50;2.85;;;2.10;;
24521;SDS011;12680;57.804;12.190;2023-11-18T14:30:17;2.70;;;2.00;;
24521;SDS011;12680;57.804;12.190;2023-11-18T14:32:45;3.50;;;1.85;;
24521;SDS011;12680;57.804;12.190;2023-11-18T14:35:15;2.60;;;1.80;;
24521;SDS011;12680;57.804;12.190;2023-11-18T14:37:44;4.75;;;1.90;;
24521;SDS011;12680;57.804;12.190;2023-11-18T14:40:15;3.50;;;1.98;;
24521;SDS011;12680;57.804;12.190;2023-11-18T14:42:42;5.47;;;2.00;;
24521;SDS011;12680;57.804;12.190;2023-11-18T14:45:12;2.90;;;2.00;;
24521;SDS011;12680;57.804;12.190;2023-11-18T14:47:40;6.05;;;2.55;;
24521;SDS011;12680;57.804;12.190;2023-11-18T14:50:07;7.78;;;3.55;;
24521;SDS011;12680;57.804;12.190;2023-11-18T14:52:47;11.45;;;3.83;;
24521;SDS011;12680;57.804;12.190;2023-11-18T14:55:18;8.43;;;4.43;;
24521;SDS011;12680;57.804;12.190;2023-11-18T14:57:47;7.45;;;3.80;;
24521;SDS011;12680;57.804;12.190;2023-11-18T15:00:14;6.75;;;4.35;;
24521;SDS011;12680;57.804;12.190;2023-11-18T15:02:54;8.20;;;4.72;;
24521;SDS011;12680;57.804;12.190;2023-11-18T15:05:25;7.15;;;3.85;;
24521;SDS011;12680;57.804;12.190;2023-11-18T15:07:53;6.43;;;4.10;;
24521;SDS011;12680;57.804;12.190;2023-11-18T15:10:22;4.05;;;2.95;;
24521;SDS011;12680;57.804;12.190;2023-11-18T15:12:54;3.25;;;2.00;;
24521;SDS011;12680;57.804;12.190;2023-11-18T15:15:25;5.68;;;2.35;;
24521;SDS011;12680;57.804;12.190;2023-11-18T15:17:58;2.55;;;1.83;;
24521;SDS011;12680;57.804;12.190;2023-11-18T15:20:26;3.45;;;2.30;;
24521;SDS011;12680;57.804;12.190;2023-11-18T15:22:53;2.30;;;1.80;;
24521;SDS011;12680;57.804;12.190;2023-11-18T15:25:20;4.38;;;2.33;;